Time;durP1;ratioP1;P1;durP2;ratioP2;P2;SDS_P1;SDS_P2;PMS_P1;PMS_P2;Temp;Humidity;BMP_temperature;BMP_pressure;BME280_temperature;BME280_humidity;BME280_pressure;Samples;Min_cycle;Max_cycle;Signal;HPM_P1;HPM_P2
2023/11/17 00:00:11;;;;;;;4.40;4.00;;;4.30;1.00;;;;;;5075900;28;20244;-73
2023/11/17 00:02:39;;;;;;;5.28;3.60;;;4.30;1.00;;;;;;5073106;28;20248;-74
2023/11/17 00:05:06;;;;;;;5.90;4.63;;;4.30;1.00;;;;;;5082993;28;20220;-73
2023/11/17 00:07:33;;;;;;;4.10;3.80;;;4.30;1.00;;;;;;5068911;28;20286;-73
2023/11/17 00:10:02;;;;;;;8.70;4.20;;;4.30;1.00;;;;;;5067239;28;20294;-74
2023/11/17 00:12:31;;;;;;;4.72;4.03;;;4.40;1.00;;;;;;5070545;28;20560;-74
2023/11/17 00:14:58;;;;;;;7.07;4.25;;;4.50;1.00;;;;;;5078825;28;20239;-74
2023/11/17 00:17:25;;;;;;;4.90;4.50;;;4.50;1.00;;;;;;5069555;28;20237;-73
2023/11/17 00:19:52;;;;;;;3.95;3.60;;;4.60;1.00;;;;;;5080761;28;20895;-73
2023/11/17 00:22:20;;;;;;;4.30;3.90;;;4.70;1.00;;;;;;5081765;28;20259;-73
2023/11/17 00:24:47;;;;;;;4.65;4.10;;;4.70;1.00;;;;;;5076252;28;20731;-73
2023/11/17 00:27:14;;;;;;;3.90;3.50;;;4.80;1.00;;;;;;5063796;28;20255;-75
2023/11/17 00:29:45;;;;;;;3.67;3.38;;;4.80;1.00;;;;;;5084417;28;20236;-73
2023/11/17 00:32:12;;;;;;;4.03;3.60;;;4.90;1.00;;;;;;5072473;28;20225;-74
2023/11/17 00:34:39;;;;;;;3.80;3.50;;;4.90;1.00;;;;;;5077053;27;20310;-70
2023/11/17 00:37:09;;;;;;;4.97;3.80;;;4.90;1.00;;;;;;5089863;28;20252;-71
2023/11/17 00:39:37;;;;;;;3.92;3.55;;;4.90;1.00;;;;;;5078762;28;20343;-69
2023/11/17 00:42:05;;;;;;;3.55;3.22;;;4.90;1.00;;;;;;5086415;28;20240;-73
2023/11/17 00:44:34;;;;;;;5.78;3.78;;;4.90;1.00;;;;;;5080510;28;20233;-70
2023/11/17 00:47:05;;;;;;;3.88;3.22;;;4.90;1.00;;;;;;5100845;27;20301;-70
2023/11/17 00:49:32;;;;;;;3.40;3.10;;;4.90;1.00;;;;;;5082826;27;20238;-70
2023/11/17 00:52:05;;;;;;;4.28;3.88;;;4.90;1.00;;;;;;5089202;28;20233;-71
2023/11/17 00:54:36;;;;;;;5.35;3.83;;;5.00;1.00;;;;;;5089289;28;20256;-70
2023/11/17 00:57:03;;;;;;;4.25;3.83;;;5.00;1.00;;;;;;5092994;28;20345;-71
2023/11/17 00:59:30;;;;;;;3.50;3.20;;;5.00;1.00;;;;;;5092977;28;20256;-69
2023/11/17 01:01:59;;;;;;;3.35;2.83;;;5.00;1.00;;;;;;5095246;28;20236;-70
2023/11/17 01:04:27;;;;;;;4.35;3.40;;;5.00;1.00;;;;;;5081791;28;20320;-69
2023/11/17 01:06:54;;;;;;;3.53;3.22;;;5.00;1.00;;;;;;5069477;28;20682;-70
2023/11/17 01:09:21;;;;;;;5.03;3.90;;;5.00;1.00;;;;;;5081767;28;20736;-70
2023/11/17 01:11:48;;;;;;;5.15;3.30;;;5.00;1.00;;;;;;5081591;28;20229;-70
2023/11/17 01:14:15;;;;;;;3.50;3.20;;;5.00;1.00;;;;;;5069322;28;20239;-70
2023/11/17 01:16:42;;;;;;;3.55;3.00;;;5.10;1.00;;;;;;5081717;28;20322;-69
2023/11/17 01:19:09;;;;;;;3.00;2.70;;;5.20;1.00;;;;;;5077454;28;20280;-70
2023/11/17 01:21:37;;;;;;;3.25;3.05;;;5.20;1.00;;;;;;5074380;28;21127;-70
2023/11/17 01:24:05;;;;;;;3.20;3.00;;;5.10;1.00;;;;;;5074926;28;20241;-70
2023/11/17 01:26:32;;;;;;;3.65;3.25;;;5.10;1.00;;;;;;5077449;28;20324;-70
2023/11/17 01:29:04;;;;;;;3.35;2.97;;;5.10;1.00;;;;;;5067529;28;20968;-71
2023/11/17 01:31:31;;;;;;;5.05;3.50;;;5.10;1.00;;;;;;5080266;28;20996;-70
2023/11/17 01:33:58;;;;;;;2.97;2.75;;;5.20;1.00;;;;;;5079725;28;20966;-70
2023/11/17 01:36:25;;;;;;;3.30;3.00;;;5.20;1.00;;;;;;5086646;28;20259;-70
2023/11/17 01:38:54;;;;;;;3.20;2.90;;;5.30;1.00;;;;;;5085411;27;20248;-72
2023/11/17 01:41:21;;;;;;;4.20;3.60;;;5.30;1.00;;;;;;5077119;28;20259;-70
2023/11/17 01:43:48;;;;;;;4.35;3.95;;;5.30;1.00;;;;;;5074369;28;20323;-71
2023/11/17 01:46:15;;;;;;;4.65;4.25;;;5.30;1.00;;;;;;5088421;28;20245;-72
2023/11/17 01:48:43;;;;;;;3.90;3.60;;;5.30;1.00;;;;;;5076594;28;20321;-70
2023/11/17 01:51:11;;;;;;;3.85;3.45;;;5.40;1.00;;;;;;5068145;28;20232;-70
2023/11/17 01:53:38;;;;;;;3.35;3.05;;;5.40;1.00;;;;;;5069381;28;20236;-70
2023/11/17 01:56:07;;;;;;;3.60;3.30;;;5.30;1.00;;;;;;5078077;28;20670;-71
2023/11/17 01:58:34;;;;;;;4.13;3.55;;;5.30;1.00;;;;;;5082393;28;20292;-69
2023/11/17 02:01:03;;;;;;;4.55;3.30;;;5.20;1.00;;;;;;5081195;28;20271;-71
2023/11/17 02:03:31;;;;;;;3.40;3.10;;;5.30;1.00;;;;;;5074815;28;20354;-69
2023/11/17 02:06:22;;;;;;;3.33;3.00;;;5.30;1.00;;;;;;5071790;28;20612;-69
2023/11/17 02:09:01;;;;;;;4.47;3.03;;;5.30;1.00;;;;;;5070506;28;20236;-70
2023/11/17 02:11:35;;;;;;;3.88;3.30;;;5.30;1.00;;;;;;5075934;28;20751;-72
2023/11/17 02:14:06;;;;;;;3.42;3.13;;;5.40;1.00;;;;;;5070841;28;20234;-71
2023/11/17 02:16:36;;;;;;;3.67;3.38;;;5.40;1.00;;;;;;5072778;28;20238;-69
2023/11/17 02:19:13;;;;;;;3.63;3.30;;;5.40;1.00;;;;;;5071421;28;20320;-70
2023/11/17 02:21:44;;;;;;;3.20;2.90;;;5.40;1.00;;;;;;5082537;28;20298;-70
2023/11/17 02:24:13;;;;;;;3.15;2.85;;;5.30;1.00;;;;;;5071962;28;20233;-69
2023/11/17 02:26:52;;;;;;;3.60;3.30;;;5.20;1.00;;;;;;5080905;28;20240;-71
2023/11/17 02:29:27;;;;;;;3.03;2.72;;;5.20;1.00;;;;;;5091223;28;20259;-70
2023/11/17 02:31:55;;;;;;;3.53;3.25;;;5.10;1.00;;;;;;5086611;28;20334;-69
2023/11/17 02:34:25;;;;;;;3.70;3.38;;;5.10;1.00;;;;;;5082873;28;20243;-69
2023/11/17 02:36:52;;;;;;;3.30;3.00;;;5.00;1.00;;;;;;5069701;28;22080;-69
2023/11/17 02:39:26;;;;;;;3.20;2.63;;;5.00;1.00;;;;;;5077337;28;20312;-70
2023/11/17 02:41:57;;;;;;;3.70;2.88;;;5.00;1.00;;;;;;5091339;27;20328;-70
2023/11/17 02:44:28;;;;;;;4.50;3.90;;;5.00;1.00;;;;;;5071811;28;20244;-69
2023/11/17 02:46:58;;;;;;;3.42;3.13;;;5.00;1.00;;;;;;5078061;28;20229;-70
2023/11/17 02:49:29;;;;;;;3.03;2.70;;;5.00;1.00;;;;;;5073614;28;20243;-71
2023/11/17 02:52:02;;;;;;;3.40;3.10;;;4.90;1.00;;;;;;5084345;28;20236;-69
2023/11/17 02:54:31;;;;;;;3.65;3.10;;;4.90;1.00;;;;;;5079238;28;20324;-71
2023/11/17 02:56:59;;;;;;;3.65;3.30;;;4.90;1.00;;;;;;5080468;28;20756;-71
2023/11/17 02:59:29;;;;;;;3.10;2.80;;;5.00;1.00;;;;;;5077393;28;20240;-72
2023/11/17 03:01:57;;;;;;;3.00;2.55;;;5.00;1.00;;;;;;5050318;28;20270;-71
2023/11/17 03:04:24;;;;;;;3.55;2.83;;;5.00;1.00;;;;;;5083634;28;20327;-71
2023/11/17 03:06:51;;;;;;;3.72;3.33;;;5.00;1.00;;;;;;5077812;27;20328;-71
2023/11/17 03:09:21;;;;;;;3.30;2.85;;;5.00;1.00;;;;;;5102353;28;20239;-70
2023/11/17 03:11:50;;;;;;;4.25;3.05;;;5.00;1.00;;;;;;5093549;28;20236;-70
2023/11/17 03:14:17;;;;;;;5.05;3.90;;;5.00;1.00;;;;;;5084695;27;20266;-71
2023/11/17 03:16:49;;;;;;;4.93;3.65;;;4.90;1.00;;;;;;5071387;28;20295;-69
2023/11/17 03:19:16;;;;;;;4.28;3.63;;;4.90;1.00;;;;;;5080613;28;20279;-68
2023/11/17 03:21:44;;;;;;;4.20;3.50;;;4.90;1.00;;;;;;5076907;28;20455;-69
2023/11/17 03:24:14;;;;;;;4.75;3.75;;;4.90;1.00;;;;;;5075178;28;20236;-71
2023/11/17 03:26:43;;;;;;;4.68;4.28;;;4.90;1.00;;;;;;5079560;28;20804;-70
2023/11/17 03:29:14;;;;;;;4.25;3.80;;;4.80;1.00;;;;;;5092231;28;20237;-68
2023/11/17 03:31:47;;;;;;;4.78;3.90;;;4.80;1.00;;;;;;5074719;28;20744;-71
2023/11/17 03:34:18;;;;;;;4.88;3.83;;;4.80;1.00;;;;;;5084567;28;20241;-71
2023/11/17 03:36:45;;;;;;;4.45;4.05;;;4.70;1.00;;;;;;5097008;28;20309;-71
2023/11/17 03:39:13;;;;;;;5.10;4.60;;;4.70;1.00;;;;;;5085546;28;20273;-72
2023/11/17 03:41:41;;;;;;;4.88;4.47;;;4.60;1.00;;;;;;5047175;28;20400;-70
2023/11/17 03:44:09;;;;;;;4.68;4.28;;;4.60;1.00;;;;;;5075566;28;20247;-70
2023/11/17 03:46:37;;;;;;;4.90;4.50;;;4.60;1.00;;;;;;5090112;28;20244;-71
2023/11/17 03:49:06;;;;;;;6.35;4.80;;;4.50;1.00;;;;;;5095986;27;20927;-70
2023/11/17 03:51:35;;;;;;;5.57;5.07;;;4.50;1.00;;;;;;5096597;28;20315;-70
2023/11/17 03:54:05;;;;;;;7.00;4.78;;;4.40;1.00;;;;;;5095291;28;20335;-70
2023/11/17 03:56:32;;;;;;;6.55;5.35;;;4.40;1.00;;;;;;5083832;27;20306;-71
2023/11/17 03:58:59;;;;;;;5.32;4.85;;;4.30;1.00;;;;;;5079889;27;20264;-70
2023/11/17 04:01:26;;;;;;;6.07;5.47;;;4.30;1.00;;;;;;5085559;28;20313;-70
2023/11/17 04:03:53;;;;;;;6.10;5.47;;;4.20;1.00;;;;;;5082142;28;20306;-73
2023/11/17 04:06:21;;;;;;;6.82;5.55;;;4.20;1.00;;;;;;5084775;28;20254;-73
2023/11/17 04:08:49;;;;;;;6.40;5.43;;;4.20;1.00;;;;;;5069713;28;20236;-72
2023/11/17 04:11:18;;;;;;;6.70;6.00;;;4.30;1.00;;;;;;5076733;28;20319;-72
2023/11/17 04:13:45;;;;;;;8.40;5.90;;;4.30;1.00;;;;;;5071508;28;20324;-72
2023/11/17 04:16:12;;;;;;;6.28;5.70;;;4.30;1.00;;;;;;5073767;27;20295;-73
2023/11/17 04:18:40;;;;;;;7.05;5.65;;;4.30;1.00;;;;;;5079010;28;20416;-72
2023/11/17 04:21:07;;;;;;;6.20;5.70;;;4.40;1.00;;;;;;5076961;28;20272;-73
2023/11/17 04:23:34;;;;;;;6.63;6.03;;;4.40;1.00;;;;;;5070356;28;20233;-71
2023/11/17 04:26:02;;;;;;;5.68;5.18;;;4.50;1.00;;;;;;5089964;27;20318;-72
2023/11/17 04:28:29;;;;;;;6.20;5.60;;;4.40;1.00;;;;;;5088608;28;20240;-73
2023/11/17 04:30:56;;;;;;;6.60;6.07;;;4.50;1.00;;;;;;5078630;28;20290;-73
2023/11/17 04:33:23;;;;;;;6.05;5.45;;;4.50;1.00;;;;;;5069754;28;20767;-72
2023/11/17 04:35:51;;;;;;;8.63;6.20;;;4.50;1.00;;;;;;5069096;28;20340;-74
2023/11/17 04:38:18;;;;;;;5.68;5.20;;;4.50;1.00;;;;;;5070488;28;20323;-72
2023/11/17 04:40:46;;;;;;;5.90;5.40;;;4.60;1.00;;;;;;5088219;27;20753;-72
2023/11/17 04:43:14;;;;;;;6.25;5.43;;;4.60;1.00;;;;;;5083380;28;21032;-73
2023/11/17 04:45:43;;;;;;;6.93;5.60;;;4.60;1.00;;;;;;5078744;28;20260;-72
2023/11/17 04:48:11;;;;;;;9.45;8.55;;;4.60;1.00;;;;;;5089783;28;20798;-73
2023/11/17 04:50:39;;;;;;;6.43;5.82;;;4.60;1.00;;;;;;5086780;28;20304;-72
2023/11/17 04:53:06;;;;;;;7.22;5.18;;;4.70;1.00;;;;;;5072297;28;20264;-72
2023/11/17 04:55:33;;;;;;;5.95;5.45;;;4.70;1.00;;;;;;5087413;28;20648;-75
2023/11/17 04:58:00;;;;;;;6.90;6.30;;;4.70;1.00;;;;;;5069688;28;20844;-73
2023/11/17 05:00:31;;;;;;;8.05;5.88;;;4.70;1.00;;;;;;5090779;28;20278;-72
2023/11/17 05:02:59;;;;;;;7.10;6.47;;;4.70;1.00;;;;;;5082342;28;20237;-72
2023/11/17 05:05:26;;;;;;;6.45;5.85;;;4.70;1.00;;;;;;5057012;28;20326;-72
2023/11/17 05:07:54;;;;;;;5.95;5.35;;;4.80;1.00;;;;;;5078089;28;20325;-72
2023/11/17 05:10:21;;;;;;;6.18;5.10;;;4.80;1.00;;;;;;5068072;28;20259;-72
2023/11/17 05:12:52;;;;;;;6.00;5.50;;;4.80;1.00;;;;;;5075889;28;20378;-72
2023/11/17 05:15:20;;;;;;;6.07;5.20;;;4.80;1.00;;;;;;5078304;28;20247;-73
2023/11/17 05:17:49;;;;;;;6.13;5.53;;;4.70;1.00;;;;;;5083237;28;20708;-74
2023/11/17 05:20:17;;;;;;;6.20;5.18;;;4.70;1.00;;;;;;5067333;28;21232;-72
2023/11/17 05:22:45;;;;;;;6.55;5.53;;;4.70;1.00;;;;;;5076517;27;20759;-74
2023/11/17 05:25:14;;;;;;;7.20;5.30;;;4.70;1.00;;;;;;5073519;28;20237;-73
2023/11/17 05:27:41;;;;;;;5.50;4.97;;;4.70;1.00;;;;;;5068292;28;20240;-73
2023/11/17 05:30:10;;;;;;;5.40;4.95;;;4.60;1.00;;;;;;5074128;27;20405;-73
2023/11/17 05:32:38;;;;;;;5.93;5.43;;;4.60;1.00;;;;;;5066946;28;20717;-72
2023/11/17 05:35:07;;;;;;;6.80;5.38;;;4.60;1.00;;;;;;5068723;28;20236;-73
2023/11/17 05:37:34;;;;;;;7.43;5.65;;;4.50;1.00;;;;;;5064551;28;20261;-73
2023/11/17 05:40:02;;;;;;;6.72;5.63;;;4.50;1.00;;;;;;5072220;28;21129;-76
2023/11/17 05:42:29;;;;;;;9.90;8.88;;;4.60;1.00;;;;;;5080101;27;20289;-74
2023/11/17 05:44:56;;;;;;;5.70;5.20;;;4.60;1.00;;;;;;5066912;28;20237;-74
2023/11/17 05:47:23;;;;;;;8.98;5.75;;;4.60;1.00;;;;;;5062219;28;20280;-74
2023/11/17 05:49:52;;;;;;;6.10;5.53;;;4.60;1.00;;;;;;5063138;28;20264;-73
2023/11/17 05:52:20;;;;;;;6.45;5.90;;;4.70;1.00;;;;;;5063948;28;20239;-73
2023/11/17 05:54:47;;;;;;;5.43;4.93;;;4.60;1.00;;;;;;5063990;28;20314;-73
2023/11/17 05:57:16;;;;;;;11.25;6.55;;;4.60;1.00;;;;;;5067292;28;20268;-72
2023/11/17 05:59:46;;;;;;;5.95;5.28;;;4.60;1.00;;;;;;5064554;28;21207;-73
2023/11/17 06:02:16;;;;;;;6.20;5.60;;;4.60;1.00;;;;;;5080460;28;20295;-72
2023/11/17 06:04:44;;;;;;;5.95;5.45;;;4.60;1.00;;;;;;5074197;28;21202;-72
2023/11/17 06:07:11;;;;;;;8.93;8.02;;;4.60;1.00;;;;;;5064461;28;20817;-74
2023/11/17 06:09:39;;;;;;;6.05;5.45;;;4.60;1.00;;;;;;5073457;27;20347;-74
2023/11/17 06:12:09;;;;;;;6.20;5.63;;;4.70;1.00;;;;;;5078346;28;20250;-73
2023/11/17 06:14:36;;;;;;;5.30;4.80;;;4.70;1.00;;;;;;5083068;28;20314;-74
2023/11/17 06:17:04;;;;;;;5.15;4.53;;;4.70;1.00;;;;;;5083293;28;20267;-74
2023/11/17 06:19:33;;;;;;;5.10;4.70;;;4.70;1.00;;;;;;5077581;28;20236;-74
2023/11/17 06:22:00;;;;;;;5.45;4.68;;;4.70;1.00;;;;;;5066924;28;20256;-73
2023/11/17 06:24:27;;;;;;;5.85;5.25;;;4.70;1.00;;;;;;5070363;28;20229;-70
2023/11/17 06:26:55;;;;;;;7.90;5.60;;;4.70;1.00;;;;;;5089742;28;20266;-72
2023/11/17 06:29:22;;;;;;;6.15;5.20;;;4.60;1.00;;;;;;5088838;28;20344;-72
2023/11/17 06:31:50;;;;;;;8.50;6.78;;;4.60;1.00;;;;;;5089400;28;20239;-74
2023/11/17 06:34:17;;;;;;;5.25;4.55;;;4.60;1.00;;;;;;5088585;28;20240;-73
2023/11/17 06:36:45;;;;;;;5.30;4.80;;;4.70;1.00;;;;;;5086586;28;20251;-74
2023/11/17 06:39:16;;;;;;;5.82;5.20;;;4.70;1.00;;;;;;5081107;28;20746;-73
2023/11/17 06:41:43;;;;;;;5.65;5.13;;;4.70;1.00;;;;;;5068588;28;20241;-74
2023/11/17 06:44:12;;;;;;;7.28;6.03;;;4.70;1.00;;;;;;5065383;28;20725;-74
2023/11/17 06:46:41;;;;;;;5.55;5.05;;;4.80;1.00;;;;;;5077422;28;20593;-72
2023/11/17 06:49:09;;;;;;;6.30;5.72;;;4.80;1.00;;;;;;5088342;28;20308;-74
2023/11/17 06:51:38;;;;;;;5.93;5.32;;;4.70;1.00;;;;;;5066977;28;20329;-74
2023/11/17 06:54:10;;;;;;;6.80;5.30;;;4.70;1.00;;;;;;5089595;28;20273;-73
2023/11/17 06:56:40;;;;;;;4.68;4.28;;;4.80;1.00;;;;;;5088686;28;20220;-73
2023/11/17 06:59:07;;;;;;;7.00;5.70;;;4.80;1.00;;;;;;5074360;28;20324;-72
2023/11/17 07:01:38;;;;;;;6.25;5.65;;;4.80;1.00;;;;;;5079668;28;21097;-73
2023/11/17 07:04:06;;;;;;;6.20;5.60;;;4.80;1.00;;;;;;5072676;28;20248;-73
2023/11/17 07:06:34;;;;;;;6.35;5.82;;;4.80;1.00;;;;;;5064202;28;20241;-72
2023/11/17 07:09:01;;;;;;;5.80;5.20;;;4.80;1.00;;;;;;5073377;28;20239;-71
2023/11/17 07:11:29;;;;;;;5.40;4.90;;;4.90;1.00;;;;;;5073087;28;20306;-72
2023/11/17 07:14:01;;;;;;;7.78;5.95;;;4.90;1.00;;;;;;5083878;27;20247;-72
2023/11/17 07:16:28;;;;;;;6.07;5.47;;;5.00;1.00;;;;;;5088158;28;20267;-73
2023/11/17 07:18:56;;;;;;;7.03;5.78;;;4.90;1.00;;;;;;5086566;28;20811;-72
2023/11/17 07:21:24;;;;;;;6.70;5.47;;;4.90;1.00;;;;;;5087414;28;21135;-72
2023/11/17 07:23:50;;;;;;;9.13;7.13;;;5.00;1.00;;;;;;5086702;28;20240;-73
2023/11/17 07:26:18;;;;;;;8.05;6.55;;;4.90;1.00;;;;;;5081424;28;20244;-73
2023/11/17 07:28:46;;;;;;;5.97;5.40;;;4.90;1.00;;;;;;5083114;28;20241;-72
2023/11/17 07:31:15;;;;;;;6.32;5.35;;;5.00;1.00;;;;;;5093171;28;21318;-73
2023/11/17 07:33:42;;;;;;;6.13;5.63;;;5.00;1.00;;;;;;5090734;27;20309;-75
2023/11/17 07:36:15;;;;;;;8.68;6.63;;;5.00;1.00;;;;;;5079959;28;20238;-79
2023/11/17 07:38:44;;;;;;;6.93;6.35;;;5.10;1.00;;;;;;5067643;28;20707;-76
2023/11/17 07:41:12;;;;;;;6.03;5.35;;;5.10;1.00;;;;;;5077476;28;20232;-80
2023/11/17 07:43:39;;;;;;;6.00;5.50;;;5.10;1.00;;;;;;5084414;28;20261;-80
2023/11/17 07:46:07;;;;;;;8.02;6.05;;;5.10;1.00;;;;;;5070738;28;20319;-80
2023/11/17 07:48:34;;;;;;;7.95;5.00;;;5.10;1.00;;;;;;5071081;28;20240;-78
2023/11/17 07:51:02;;;;;;;6.38;5.85;;;5.10;1.00;;;;;;5079411;28;20332;-78
2023/11/17 07:53:30;;;;;;;7.75;6.22;;;5.10;1.00;;;;;;5072670;28;20244;-81
2023/11/17 07:55:58;;;;;;;5.93;5.32;;;5.10;1.00;;;;;;5087634;28;20956;-80
2023/11/17 07:58:26;;;;;;;6.43;5.55;;;5.20;1.00;;;;;;5068494;28;20241;-77
2023/11/17 08:00:54;;;;;;;6.00;5.40;;;5.20;1.00;;;;;;5078046;28;20248;-77
2023/11/17 08:03:22;;;;;;;8.23;6.70;;;5.20;1.00;;;;;;5084334;28;20232;-78
2023/11/17 08:05:49;;;;;;;7.25;6.47;;;5.20;1.00;;;;;;5083972;28;20278;-80
2023/11/17 08:08:16;;;;;;;7.75;6.80;;;5.20;1.00;;;;;;5076114;28;20284;-79
2023/11/17 08:10:46;;;;;;;6.53;6.03;;;5.20;1.00;;;;;;5069890;28;20236;-76
2023/11/17 08:13:15;;;;;;;6.75;5.75;;;5.20;1.00;;;;;;5070280;28;20303;-76
2023/11/17 08:15:42;;;;;;;6.32;5.72;;;5.10;1.00;;;;;;5087456;28;20237;-76
2023/11/17 08:18:12;;;;;;;6.30;5.80;;;5.20;1.00;;;;;;5078272;27;20232;-76
2023/11/17 08:20:41;;;;;;;5.70;5.25;;;5.10;1.00;;;;;;5073565;27;20237;-75
2023/11/17 08:23:08;;;;;;;6.22;5.68;;;5.10;1.00;;;;;;5081726;28;20378;-79
2023/11/17 08:25:35;;;;;;;6.55;5.95;;;5.10;1.00;;;;;;5078875;28;20245;-77
2023/11/17 08:28:04;;;;;;;7.40;6.43;;;5.20;1.00;;;;;;5085996;28;20315;-76
2023/11/17 08:30:31;;;;;;;7.10;6.28;;;5.20;1.00;;;;;;5071063;28;20286;-78
2023/11/17 08:32:58;;;;;;;7.32;5.35;;;5.30;1.00;;;;;;5069939;28;20256;-78
2023/11/17 08:35:25;;;;;;;7.32;5.55;;;5.30;1.00;;;;;;5085808;28;20242;-77
2023/11/17 08:37:53;;;;;;;7.07;5.68;;;5.30;1.00;;;;;;5075116;28;20233;-76
2023/11/17 08:40:20;;;;;;;6.05;5.38;;;5.30;1.00;;;;;;5082320;28;20222;-78
2023/11/17 08:42:48;;;;;;;6.20;5.57;;;5.30;1.00;;;;;;5082213;28;20236;-79
2023/11/17 08:45:16;;;;;;;6.05;4.90;;;5.40;1.00;;;;;;5082787;28;20760;-70
2023/11/17 08:47:44;;;;;;;6.07;5.47;;;5.50;1.00;;;;;;5068189;28;20240;-72
2023/11/17 08:50:13;;;;;;;7.18;4.90;;;5.50;1.00;;;;;;5073465;28;20353;-72
2023/11/17 08:52:42;;;;;;;6.30;5.60;;;5.40;1.00;;;;;;5065361;28;20245;-70
2023/11/17 08:55:13;;;;;;;6.07;5.47;;;5.40;1.00;;;;;;5070014;28;20725;-72
2023/11/17 08:57:41;;;;;;;6.40;5.80;;;5.40;1.00;;;;;;5066778;28;20678;-73
2023/11/17 09:00:12;;;;;;;5.50;4.80;;;5.40;1.00;;;;;;5072824;28;20247;-69
2023/11/17 09:02:41;;;;;;;5.97;5.38;;;5.40;1.00;;;;;;5074862;28;21559;-71
2023/11/17 09:05:09;;;;;;;5.70;5.20;;;5.30;1.00;;;;;;5088257;28;21459;-71
2023/11/17 09:07:40;;;;;;;5.20;4.80;;;5.40;1.00;;;;;;5085565;28;20276;-70
2023/11/17 09:10:08;;;;;;;5.05;4.60;;;5.50;1.00;;;;;;5088525;28;20221;-70
2023/11/17 09:12:36;;;;;;;6.57;5.32;;;5.50;1.00;;;;;;5087816;28;20247;-69
2023/11/17 09:15:08;;;;;;;5.97;5.13;;;5.60;1.00;;;;;;5085690;28;20311;-70
2023/11/17 09:17:40;;;;;;;7.93;4.90;;;5.60;1.00;;;;;;5086564;28;20351;-71
2023/11/17 09:20:13;;;;;;;6.10;4.95;;;5.60;1.00;;;;;;5085033;28;20696;-70
2023/11/17 09:22:40;;;;;;;7.00;4.90;;;5.60;1.00;;;;;;5085466;28;21022;-70
2023/11/17 09:25:13;;;;;;;5.20;4.70;;;5.60;1.00;;;;;;5074756;28;20251;-71
2023/11/17 09:27:40;;;;;;;5.38;4.88;;;5.50;1.00;;;;;;5065080;28;20246;-71
2023/11/17 09:30:12;;;;;;;5.70;5.22;;;5.50;1.00;;;;;;5063646;28;20407;-72
2023/11/17 09:32:39;;;;;;;5.57;4.93;;;5.50;1.00;;;;;;5066736;28;20247;-74
2023/11/17 09:35:13;;;;;;;8.52;5.18;;;5.50;1.00;;;;;;5071709;28;20712;-70
2023/11/17 09:37:46;;;;;;;6.57;4.88;;;5.60;1.00;;;;;;5089898;28;20235;-70
2023/11/17 09:40:18;;;;;;;5.90;5.15;;;5.70;1.00;;;;;;5078196;28;21060;-70
2023/11/17 09:42:46;;;;;;;8.57;5.80;;;5.70;1.00;;;;;;5071913;28;20239;-75
2023/11/17 09:45:18;;;;;;;7.45;5.60;;;5.70;1.00;;;;;;5065736;28;20269;-70
2023/11/17 09:47:48;;;;;;;6.68;4.50;;;5.70;1.00;;;;;;5065559;28;20274;-70
2023/11/17 09:50:18;;;;;;;5.40;4.90;;;5.70;1.00;;;;;;5074537;28;20256;-70
2023/11/17 09:52:48;;;;;;;9.23;6.40;;;5.70;1.00;;;;;;5069197;28;20304;-72
2023/11/17 09:55:16;;;;;;;6.60;5.68;;;5.60;1.00;;;;;;5071120;28;20240;-77
2023/11/17 09:57:45;;;;;;;6.35;5.75;;;5.70;1.00;;;;;;5068883;28;20249;-75
2023/11/17 10:00:20;;;;;;;5.75;5.25;;;5.70;1.00;;;;;;5071804;28;20264;-74
2023/11/17 10:02:52;;;;;;;7.93;5.82;;;5.70;1.00;;;;;;5078753;28;20249;-75
2023/11/17 10:05:21;;;;;;;8.82;5.70;;;5.60;1.00;;;;;;5086695;28;20962;-76
2023/11/17 10:07:50;;;;;;;8.57;7.07;;;5.70;1.00;;;;;;5087941;28;20700;-77
2023/11/17 10:10:20;;;;;;;6.93;6.22;;;5.80;1.00;;;;;;5088446;28;20247;-77
2023/11/17 10:12:49;;;;;;;13.70;6.72;;;5.90;1.00;;;;;;5086590;28;20289;-80
2023/11/17 10:15:18;;;;;;;6.35;5.75;;;5.90;1.00;;;;;;5073510;28;20228;-81
2023/11/17 10:17:49;;;;;;;5.82;5.25;;;6.00;1.00;;;;;;5072771;28;20233;-76
2023/11/17 10:20:20;;;;;;;6.78;6.13;;;6.00;1.00;;;;;;5065496;28;20233;-76
2023/11/17 10:22:49;;;;;;;5.75;5.13;;;6.00;1.00;;;;;;5079610;28;20294;-76
2023/11/17 10:25:19;;;;;;;5.53;5.03;;;6.10;1.00;;;;;;5086511;28;20264;-77
2023/11/17 10:27:49;;;;;;;6.03;4.72;;;6.10;1.00;;;;;;5080265;28;21080;-78
2023/11/17 10:30:19;;;;;;;6.53;5.82;;;6.00;1.00;;;;;;5072191;28;20230;-79
2023/11/17 10:32:58;;;;;;;11.15;7.65;;;6.10;1.00;;;;;;5069643;28;20241;-77
2023/11/17 10:35:31;;;;;;;5.70;5.15;;;6.10;1.00;;;;;;5067336;28;20243;-76
2023/11/17 10:37:58;;;;;;;6.00;5.40;;;6.30;1.00;;;;;;5069857;28;20290;-77
2023/11/17 10:40:28;;;;;;;6.38;5.30;;;6.30;1.00;;;;;;5069109;28;20237;-77
2023/11/17 10:43:07;;;;;;;5.55;5.05;;;6.30;1.00;;;;;;5084929;28;20264;-74
2023/11/17 10:45:35;;;;;;;6.25;5.72;;;6.20;1.00;;;;;;5072540;28;20272;-79
2023/11/17 10:48:06;;;;;;;9.75;7.18;;;6.30;1.00;;;;;;5071586;28;20781;-78
2023/11/17 10:50:35;;;;;;;5.30;4.38;;;6.40;1.00;;;;;;5070904;28;20624;-77
2023/11/17 10:53:24;;;;;;;6.45;5.40;;;6.40;1.00;;;;;;5074584;28;20999;-77
2023/11/17 10:55:53;;;;;;;7.50;5.20;;;6.50;1.00;;;;;;5082462;28;20261;-76
2023/11/17 10:58:21;;;;;;;5.80;4.60;;;6.50;1.00;;;;;;5092006;28;20581;-78
2023/11/17 11:00:51;;;;;;;6.07;5.32;;;6.50;1.00;;;;;;5079276;28;20995;-74
2023/11/17 11:03:19;;;;;;;7.57;4.78;;;6.50;1.00;;;;;;5074528;28;20326;-77
2023/11/17 11:05:48;;;;;;;5.18;4.70;;;6.40;1.00;;;;;;5092436;27;20243;-76
2023/11/17 11:08:18;;;;;;;6.85;4.45;;;6.40;1.00;;;;;;5069700;28;20277;-76
2023/11/17 11:10:55;;;;;;;4.97;4.43;;;6.40;1.00;;;;;;5071496;28;20242;-75
2023/11/17 11:13:29;;;;;;;7.50;6.10;;;6.50;1.00;;;;;;5077224;28;20312;-77
2023/11/17 11:16:05;;;;;;;7.85;4.75;;;6.40;1.00;;;;;;5085625;28;20241;-75
2023/11/17 11:18:35;;;;;;;4.60;4.20;;;6.50;1.00;;;;;;5087487;28;20233;-78
2023/11/17 11:21:06;;;;;;;5.05;4.45;;;6.50;1.00;;;;;;5077153;28;20238;-75
2023/11/17 11:23:34;;;;;;;5.57;4.80;;;6.50;1.00;;;;;;5083829;28;20244;-76
2023/11/17 11:26:03;;;;;;;6.80;5.00;;;6.60;1.00;;;;;;5071871;28;20319;-77
2023/11/17 11:28:32;;;;;;;5.72;5.22;;;6.50;1.00;;;;;;5076212;28;20236;-75
2023/11/17 11:31:00;;;;;;;4.47;4.07;;;6.50;1.00;;;;;;5066782;28;20225;-77
2023/11/17 11:33:30;;;;;;;5.22;4.35;;;6.40;1.00;;;;;;5083392;28;20248;-75
2023/11/17 11:35:59;;;;;;;6.22;4.75;;;6.40;1.00;;;;;;5089870;28;20716;-76
2023/11/17 11:38:29;;;;;;;8.20;4.55;;;6.50;1.00;;;;;;5075634;28;20710;-77
2023/11/17 11:40:56;;;;;;;4.32;3.92;;;6.50;1.00;;;;;;5068755;28;20237;-75
2023/11/17 11:43:27;;;;;;;4.55;4.15;;;6.50;1.00;;;;;;5088729;28;20329;-75
2023/11/17 11:45:54;;;;;;;6.40;4.40;;;6.50;1.00;;;;;;5091688;28;20323;-76
2023/11/17 11:48:25;;;;;;;4.45;4.03;;;6.60;1.00;;;;;;5084970;28;20334;-76
2023/11/17 11:50:54;;;;;;;6.57;4.53;;;6.70;1.00;;;;;;5079264;28;20725;-78
2023/11/17 11:53:32;;;;;;;7.85;4.13;;;6.80;1.00;;;;;;5087629;27;20250;-75
2023/11/17 11:56:11;;;;;;;5.50;3.85;;;6.90;1.00;;;;;;5066040;28;20246;-77
2023/11/17 11:58:42;;;;;;;5.32;4.25;;;7.00;1.00;;;;;;5086167;28;20705;-76
2023/11/17 12:01:10;;;;;;;4.32;3.72;;;7.00;1.00;;;;;;5072579;27;20243;-76
2023/11/17 12:03:37;;;;;;;4.88;4.38;;;7.00;1.00;;;;;;5076455;28;21104;-75
2023/11/17 12:06:04;;;;;;;4.30;3.88;;;7.00;1.00;;;;;;5071743;28;20242;-76
2023/11/17 12:08:32;;;;;;;4.67;4.27;;;7.00;1.00;;;;;;5071143;28;20253;-76
2023/11/17 12:11:14;;;;;;;4.70;4.32;;;7.00;1.00;;;;;;5089908;27;20439;-75
2023/11/17 12:13:44;;;;;;;5.47;3.55;;;7.00;1.00;;;;;;5075160;28;20234;-76
2023/11/17 12:16:18;;;;;;;6.72;3.83;;;6.90;1.00;;;;;;5086723;28;20265;-79
2023/11/17 12:18:50;;;;;;;4.53;4.13;;;7.00;1.00;;;;;;5071888;28;21133;-81
2023/11/17 12:21:18;;;;;;;5.15;3.67;;;7.00;1.00;;;;;;5083689;28;20227;-79
2023/11/17 12:23:56;;;;;;;6.97;4.82;;;6.90;1.00;;;;;;5072576;28;21100;-78
2023/11/17 12:26:26;;;;;;;4.32;3.85;;;6.80;1.00;;;;;;5073262;28;20245;-78
2023/11/17 12:28:54;;;;;;;3.50;3.20;;;6.80;1.00;;;;;;5073065;28;20253;-78
2023/11/17 12:31:24;;;;;;;5.35;4.85;;;6.70;1.00;;;;;;5077949;28;20233;-79
2023/11/17 12:33:53;;;;;;;3.95;3.53;;;6.70;1.00;;;;;;5072394;28;20243;-78
2023/11/17 12:36:21;;;;;;;8.60;4.70;;;6.70;1.00;;;;;;5082973;28;20924;-79
2023/11/17 12:38:52;;;;;;;4.50;4.07;;;6.70;1.00;;;;;;5089633;28;20333;-78
2023/11/17 12:41:22;;;;;;;5.53;4.72;;;6.70;1.00;;;;;;5083193;28;20698;-79
2023/11/17 12:43:51;;;;;;;4.80;4.30;;;6.70;1.00;;;;;;5070533;28;20276;-79
2023/11/17 12:46:19;;;;;;;6.13;4.60;;;6.80;1.00;;;;;;5076202;28;22016;-79
2023/11/17 12:48:48;;;;;;;5.28;4.55;;;6.70;1.00;;;;;;5075621;27;20812;-77
2023/11/17 12:51:26;;;;;;;5.03;4.53;;;6.70;1.00;;;;;;5080295;27;20255;-75
2023/11/17 12:53:55;;;;;;;5.00;4.50;;;6.80;1.00;;;;;;5085240;27;20477;-78
2023/11/17 12:56:23;;;;;;;4.50;4.10;;;6.90;1.00;;;;;;5091477;27;20252;-80
2023/11/17 12:58:53;;;;;;;4.63;3.92;;;6.90;1.00;;;;;;5087292;27;21164;-78
2023/11/17 13:01:22;;;;;;;4.72;4.32;;;6.90;1.00;;;;;;5091378;27;20248;-80
2023/11/17 13:03:51;;;;;;;4.88;3.90;;;7.00;1.00;;;;;;5073107;27;20336;-78
2023/11/17 13:06:20;;;;;;;4.23;3.83;;;6.90;1.00;;;;;;5087296;27;20238;-79
2023/11/17 13:08:48;;;;;;;4.38;4.05;;;6.90;1.00;;;;;;5084243;27;20423;-78
2023/11/17 13:11:15;;;;;;;5.43;3.78;;;6.80;1.00;;;;;;5090418;28;21051;-78
2023/11/17 13:13:43;;;;;;;7.20;4.57;;;6.90;1.00;;;;;;5083506;28;21080;-79
2023/11/17 13:16:14;;;;;;;4.72;4.32;;;6.80;1.00;;;;;;5075427;28;20231;-78